sensor_id;sensor_type;location;lat;lon;timestamp;temperature;humidity
41256;DHT22;26989;45.524;10.938;2023-05-10T00:00:20;15.50;99.90
41256;DHT22;26989;45.524;10.938;2023-05-10T00:02:49;15.60;99.90
41256;DHT22;26989;45.524;10.938;2023-05-10T00:05:16;15.50;99.90
41256;DHT22;26989;45.524;10.938;2023-05-10T00:07:43;15.60;99.90
41256;DHT22;26989;45.524;10.938;2023-05-10T00:10:11;15.70;99.90
41256;DHT22;26989;45.524;10.938;2023-05-10T00:12:38;15.60;99.90
41256;DHT22;26989;45.524;10.938;2023-05-10T00:15:06;15.60;99.90
41256;DHT22;26989;45.524;10.938;2023-05-10T00:17:33;15.60;99.90
41256;DHT22;26989;45.524;10.938;2023-05-10T00:20:00;15.70;99.90
41256;DHT22;26989;45.524;10.938;2023-05-10T00:22:27;15.70;99.90
41256;DHT22;26989;45.524;10.938;2023-05-10T00:24:53;15.70;99.90
41256;DHT22;26989;45.524;10.938;2023-05-10T00:27:20;15.70;99.90
41256;DHT22;26989;45.524;10.938;2023-05-10T00:29:47;15.60;99.90
41256;DHT22;26989;45.524;10.938;2023-05-10T00:32:14;15.50;99.90
41256;DHT22;26989;45.524;10.938;2023-05-10T00:34:41;15.50;99.90
41256;DHT22;26989;45.524;10.938;2023-05-10T00:37:07;15.30;99.90
41256;DHT22;26989;45.524;10.938;2023-05-10T00:39:34;15.20;99.90
41256;DHT22;26989;45.524;10.938;2023-05-10T00:42:01;15.10;99.90
41256;DHT22;26989;45.524;10.938;2023-05-10T00:44:28;15.00;99.90
41256;DHT22;26989;45.524;10.938;2023-05-10T00:46:55;14.90;99.90
41256;DHT22;26989;45.524;10.938;2023-05-10T00:49:21;14.80;99.90
41256;DHT22;26989;45.524;10.938;2023-05-10T00:51:48;14.80;99.90
41256;DHT22;26989;45.524;10.938;2023-05-10T00:54:16;14.70;99.90
41256;DHT22;26989;45.524;10.938;2023-05-10T00:56:43;14.80;99.90
41256;DHT22;26989;45.524;10.938;2023-05-10T00:59:18;14.70;99.90
41256;DHT22;26989;45.524;10.938;2023-05-10T01:01:46;14.70;99.90
41256;DHT22;26989;45.524;10.938;2023-05-10T01:04:14;14.70;99.90
41256;DHT22;26989;45.524;10.938;2023-05-10T01:06:41;14.70;99.90
41256;DHT22;26989;45.524;10.938;2023-05-10T01:09:08;14.60;99.90
41256;DHT22;26989;45.524;10.938;2023-05-10T01:11:37;14.70;99.90
41256;DHT22;26989;45.524;10.938;2023-05-10T01:14:05;14.70;99.90
41256;DHT22;26989;45.524;10.938;2023-05-10T01:16:37;14.70;99.90
41256;DHT22;26989;45.524;10.938;2023-05-10T01:19:25;14.80;99.90
41256;DHT22;26989;45.524;10.938;2023-05-10T01:28:17;14.60;99.90
41256;DHT22;26989;45.524;10.938;2023-05-10T01:31:14;14.50;99.90
41256;DHT22;26989;45.524;10.938;2023-05-10T01:33:51;14.50;99.90
41256;DHT22;26989;45.524;10.938;2023-05-10T01:36:40;14.50;99.90
41256;DHT22;26989;45.524;10.938;2023-05-10T01:39:15;14.50;99.90
41256;DHT22;26989;45.524;10.938;2023-05-10T01:47:31;14.40;99.90
41256;DHT22;26989;45.524;10.938;2023-05-10T01:50:03;14.30;99.90
41256;DHT22;26989;45.524;10.938;2023-05-10T01:52:34;14.30;99.90
41256;DHT22;26989;45.524;10.938;2023-05-10T01:55:08;14.30;99.90
41256;DHT22;26989;45.524;10.938;2023-05-10T01:57:37;14.20;99.90
41256;DHT22;26989;45.524;10.938;2023-05-10T02:00:07;14.20;99.90
41256;DHT22;26989;45.524;10.938;2023-05-10T02:02:39;14.20;99.90
41256;DHT22;26989;45.524;10.938;2023-05-10T02:05:09;14.20;99.90
41256;DHT22;26989;45.524;10.938;2023-05-10T02:07:39;14.10;99.90
41256;DHT22;26989;45.524;10.938;2023-05-10T02:10:08;14.10;99.90
41256;DHT22;26989;45.524;10.938;2023-05-10T02:12:37;14.10;99.90
41256;DHT22;26989;45.524;10.938;2023-05-10T02:15:07;14.20;99.90
41256;DHT22;26989;45.524;10.938;2023-05-10T02:17:35;14.10;99.90
41256;DHT22;26989;45.524;10.938;2023-05-10T02:20:05;14.10;99.90
41256;DHT22;26989;45.524;10.938;2023-05-10T02:22:33;14.10;99.90
41256;DHT22;26989;45.524;10.938;2023-05-10T02:25:02;14.00;99.90
41256;DHT22;26989;45.524;10.938;2023-05-10T02:27:30;14.00;99.90
41256;DHT22;26989;45.524;10.938;2023-05-10T02:29:57;14.00;99.90
41256;DHT22;26989;45.524;10.938;2023-05-10T02:32:26;14.10;99.90
41256;DHT22;26989;45.524;10.938;2023-05-10T02:34:54;14.00;99.90
41256;DHT22;26989;45.524;10.938;2023-05-10T02:37:22;14.00;99.90
41256;DHT22;26989;45.524;10.938;2023-05-10T02:39:51;14.10;99.90
41256;DHT22;26989;45.524;10.938;2023-05-10T02:42:26;14.10;99.90
41256;DHT22;26989;45.524;10.938;2023-05-10T02:44:56;14.10;99.90
41256;DHT22;26989;45.524;10.938;2023-05-10T02:47:26;14.00;99.90
41256;DHT22;26989;45.524;10.938;2023-05-10T02:49:53;13.60;99.90
41256;DHT22;26989;45.524;10.938;2023-05-10T02:52:24;13.50;99.90
41256;DHT22;26989;45.524;10.938;2023-05-10T02:54:52;13.60;99.90
41256;DHT22;26989;45.524;10.938;2023-05-10T02:57:28;13.60;99.90
41256;DHT22;26989;45.524;10.938;2023-05-10T02:59:56;13.60;99.90
41256;DHT22;26989;45.524;10.938;2023-05-10T03:02:23;13.50;99.90
41256;DHT22;26989;45.524;10.938;2023-05-10T03:04:50;13.50;99.90
41256;DHT22;26989;45.524;10.938;2023-05-10T03:07:18;13.60;99.90
41256;DHT22;26989;45.524;10.938;2023-05-10T03:09:50;13.50;99.90
41256;DHT22;26989;45.524;10.938;2023-05-10T03:12:31;13.50;99.90
41256;DHT22;26989;45.524;10.938;2023-05-10T03:20:26;13.30;99.90
41256;DHT22;26989;45.524;10.938;2023-05-10T03:23:04;13.10;99.90
41256;DHT22;26989;45.524;10.938;2023-05-10T03:25:32;13.00;99.90
41256;DHT22;26989;45.524;10.938;2023-05-10T03:28:01;12.80;99.90
41256;DHT22;26989;45.524;10.938;2023-05-10T03:30:28;12.70;99.90
41256;DHT22;26989;45.524;10.938;2023-05-10T03:32:55;12.60;99.90
41256;DHT22;26989;45.524;10.938;2023-05-10T03:35:23;12.50;99.90
41256;DHT22;26989;45.524;10.938;2023-05-10T03:37:50;12.50;99.90
41256;DHT22;26989;45.524;10.938;2023-05-10T03:40:17;12.50;99.90
41256;DHT22;26989;45.524;10.938;2023-05-10T03:42:44;12.50;99.90
41256;DHT22;26989;45.524;10.938;2023-05-10T03:45:11;12.40;99.90
41256;DHT22;26989;45.524;10.938;2023-05-10T03:47:38;12.40;99.90
41256;DHT22;26989;45.524;10.938;2023-05-10T03:50:05;12.40;99.90
41256;DHT22;26989;45.524;10.938;2023-05-10T03:52:32;12.40;99.90
41256;DHT22;26989;45.524;10.938;2023-05-10T03:54:59;12.40;99.90
41256;DHT22;26989;45.524;10.938;2023-05-10T03:57:26;12.50;99.90
41256;DHT22;26989;45.524;10.938;2023-05-10T03:59:52;12.50;99.90
41256;DHT22;26989;45.524;10.938;2023-05-10T04:02:19;12.40;99.90
41256;DHT22;26989;45.524;10.938;2023-05-10T04:04:46;12.30;99.90
41256;DHT22;26989;45.524;10.938;2023-05-10T04:07:14;12.40;99.90
41256;DHT22;26989;45.524;10.938;2023-05-10T04:09:41;12.50;99.90
41256;DHT22;26989;45.524;10.938;2023-05-10T04:12:08;12.60;99.90
41256;DHT22;26989;45.524;10.938;2023-05-10T04:14:36;12.80;99.90
41256;DHT22;26989;45.524;10.938;2023-05-10T04:17:03;12.90;99.90
41256;DHT22;26989;45.524;10.938;2023-05-10T04:19:31;13.00;99.90
41256;DHT22;26989;45.524;10.938;2023-05-10T04:21:58;13.00;99.90
41256;DHT22;26989;45.524;10.938;2023-05-10T04:24:25;13.00;99.90
41256;DHT22;26989;45.524;10.938;2023-05-10T04:26:52;12.90;99.90
41256;DHT22;26989;45.524;10.938;2023-05-10T04:29:23;13.00;99.90
41256;DHT22;26989;45.524;10.938;2023-05-10T04:31:49;13.10;99.90
41256;DHT22;26989;45.524;10.938;2023-05-10T04:34:17;13.00;99.90
41256;DHT22;26989;45.524;10.938;2023-05-10T04:36:44;13.10;99.90
41256;DHT22;26989;45.524;10.938;2023-05-10T04:39:11;13.10;99.90
41256;DHT22;26989;45.524;10.938;2023-05-10T04:41:38;12.90;99.90
41256;DHT22;26989;45.524;10.938;2023-05-10T04:44:05;12.90;99.90
41256;DHT22;26989;45.524;10.938;2023-05-10T04:46:32;12.90;99.90
41256;DHT22;26989;45.524;10.938;2023-05-10T04:48:59;12.90;99.90
41256;DHT22;26989;45.524;10.938;2023-05-10T04:51:26;13.10;99.90
41256;DHT22;26989;45.524;10.938;2023-05-10T04:53:52;13.00;99.90
41256;DHT22;26989;45.524;10.938;2023-05-10T04:56:32;13.00;99.90
41256;DHT22;26989;45.524;10.938;2023-05-10T04:58:59;12.80;99.90
41256;DHT22;26989;45.524;10.938;2023-05-10T05:01:26;12.80;99.90
41256;DHT22;26989;45.524;10.938;2023-05-10T05:03:53;12.80;99.90
41256;DHT22;26989;45.524;10.938;2023-05-10T05:06:20;12.50;99.90
41256;DHT22;26989;45.524;10.938;2023-05-10T05:08:51;12.30;99.90
41256;DHT22;26989;45.524;10.938;2023-05-10T05:11:18;12.30;99.90
41256;DHT22;26989;45.524;10.938;2023-05-10T05:13:45;12.20;99.90
41256;DHT22;26989;45.524;10.938;2023-05-10T05:16:12;12.20;99.90
41256;DHT22;26989;45.524;10.938;2023-05-10T05:18:39;12.30;99.90
41256;DHT22;26989;45.524;10.938;2023-05-10T05:21:16;12.40;99.90
41256;DHT22;26989;45.524;10.938;2023-05-10T05:23:43;12.60;99.90
41256;DHT22;26989;45.524;10.938;2023-05-10T05:26:10;12.60;99.90
41256;DHT22;26989;45.524;10.938;2023-05-10T05:28:37;12.50;99.90
41256;DHT22;26989;45.524;10.938;2023-05-10T05:31:05;12.50;99.90
41256;DHT22;26989;45.524;10.938;2023-05-10T05:33:32;12.60;99.90
41256;DHT22;26989;45.524;10.938;2023-05-10T05:36:01;12.60;99.90
41256;DHT22;26989;45.524;10.938;2023-05-10T05:38:28;12.60;99.90
41256;DHT22;26989;45.524;10.938;2023-05-10T05:40:55;12.70;99.90
41256;DHT22;26989;45.524;10.938;2023-05-10T05:43:30;12.80;99.90
41256;DHT22;26989;45.524;10.938;2023-05-10T05:45:57;13.00;99.90
41256;DHT22;26989;45.524;10.938;2023-05-10T05:48:26;13.20;99.90
41256;DHT22;26989;45.524;10.938;2023-05-10T05:50:54;13.30;99.90
41256;DHT22;26989;45.524;10.938;2023-05-10T05:53:22;13.30;99.90
41256;DHT22;26989;45.524;10.938;2023-05-10T05:55:54;13.40;99.90
41256;DHT22;26989;45.524;10.938;2023-05-10T05:58:22;13.40;99.90
41256;DHT22;26989;45.524;10.938;2023-05-10T06:00:50;13.40;99.90
41256;DHT22;26989;45.524;10.938;2023-05-10T06:03:19;13.50;99.90
41256;DHT22;26989;45.524;10.938;2023-05-10T06:05:47;13.50;99.90
41256;DHT22;26989;45.524;10.938;2023-05-10T06:08:13;13.60;99.90
41256;DHT22;26989;45.524;10.938;2023-05-10T06:10:42;13.70;99.90
41256;DHT22;26989;45.524;10.938;2023-05-10T06:13:09;13.70;99.90
41256;DHT22;26989;45.524;10.938;2023-05-10T06:15:36;13.70;99.90
41256;DHT22;26989;45.524;10.938;2023-05-10T06:18:06;13.60;99.90
41256;DHT22;26989;45.524;10.938;2023-05-10T06:20:35;13.70;99.90
41256;DHT22;26989;45.524;10.938;2023-05-10T06:23:01;13.70;99.90
41256;DHT22;26989;45.524;10.938;2023-05-10T06:25:29;13.70;99.90
41256;DHT22;26989;45.524;10.938;2023-05-10T06:27:55;13.70;99.90
41256;DHT22;26989;45.524;10.938;2023-05-10T06:30:25;13.70;99.90
41256;DHT22;26989;45.524;10.938;2023-05-10T06:32:56;13.80;99.90
41256;DHT22;26989;45.524;10.938;2023-05-10T06:35:24;13.70;99.90
41256;DHT22;26989;45.524;10.938;2023-05-10T06:37:51;13.70;99.90
41256;DHT22;26989;45.524;10.938;2023-05-10T06:40:18;13.70;99.90
41256;DHT22;26989;45.524;10.938;2023-05-10T06:42:48;13.80;99.90
41256;DHT22;26989;45.524;10.938;2023-05-10T06:45:16;13.80;99.90
41256;DHT22;26989;45.524;10.938;2023-05-10T06:47:48;13.80;99.90
41256;DHT22;26989;45.524;10.938;2023-05-10T06:50:16;13.80;99.90
41256;DHT22;26989;45.524;10.938;2023-05-10T06:52:42;13.90;99.90
41256;DHT22;26989;45.524;10.938;2023-05-10T06:55:13;13.80;99.90
41256;DHT22;26989;45.524;10.938;2023-05-10T06:57:40;13.90;99.90
41256;DHT22;26989;45.524;10.938;2023-05-10T07:00:08;13.80;99.90
41256;DHT22;26989;45.524;10.938;2023-05-10T07:02:36;13.80;99.90
41256;DHT22;26989;45.524;10.938;2023-05-10T07:05:03;13.80;99.90
41256;DHT22;26989;45.524;10.938;2023-05-10T07:07:30;13.80;99.90
41256;DHT22;26989;45.524;10.938;2023-05-10T07:09:57;13.80;99.90
41256;DHT22;26989;45.524;10.938;2023-05-10T07:12:27;13.80;99.90
41256;DHT22;26989;45.524;10.938;2023-05-10T07:14:56;13.80;99.90
41256;DHT22;26989;45.524;10.938;2023-05-10T07:17:24;13.70;99.90
41256;DHT22;26989;45.524;10.938;2023-05-10T07:19:51;13.70;99.90
41256;DHT22;26989;45.524;10.938;2023-05-10T07:22:18;13.70;99.90
41256;DHT22;26989;45.524;10.938;2023-05-10T07:24:45;13.80;99.90
41256;DHT22;26989;45.524;10.938;2023-05-10T07:27:12;13.70;99.90
41256;DHT22;26989;45.524;10.938;2023-05-10T07:29:39;13.80;99.90
41256;DHT22;26989;45.524;10.938;2023-05-10T07:32:06;13.80;99.90
41256;DHT22;26989;45.524;10.938;2023-05-10T07:34:34;13.70;99.90
41256;DHT22;26989;45.524;10.938;2023-05-10T07:37:01;13.90;99.90
41256;DHT22;26989;45.524;10.938;2023-05-10T07:39:28;14.00;99.90
41256;DHT22;26989;45.524;10.938;2023-05-10T07:41:55;14.00;99.90
41256;DHT22;26989;45.524;10.938;2023-05-10T07:44:23;13.90;99.90
41256;DHT22;26989;45.524;10.938;2023-05-10T07:46:49;13.90;99.90
41256;DHT22;26989;45.524;10.938;2023-05-10T07:49:17;13.90;99.90
41256;DHT22;26989;45.524;10.938;2023-05-10T07:51:44;14.00;99.90
41256;DHT22;26989;45.524;10.938;2023-05-10T07:54:15;13.90;99.90
41256;DHT22;26989;45.524;10.938;2023-05-10T07:56:49;13.90;99.90
41256;DHT22;26989;45.524;10.938;2023-05-10T07:59:16;14.00;99.90
41256;DHT22;26989;45.524;10.938;2023-05-10T08:01:44;13.90;99.90
41256;DHT22;26989;45.524;10.938;2023-05-10T08:04:11;14.00;99.90
41256;DHT22;26989;45.524;10.938;2023-05-10T08:06:39;13.90;99.90
41256;DHT22;26989;45.524;10.938;2023-05-10T08:09:06;13.90;99.90
41256;DHT22;26989;45.524;10.938;2023-05-10T08:11:33;14.00;99.90
41256;DHT22;26989;45.524;10.938;2023-05-10T08:14:00;14.10;99.90
41256;DHT22;26989;45.524;10.938;2023-05-10T08:16:27;14.20;99.90
41256;DHT22;26989;45.524;10.938;2023-05-10T08:18:55;14.30;99.90
41256;DHT22;26989;45.524;10.938;2023-05-10T08:21:22;14.30;99.90
41256;DHT22;26989;45.524;10.938;2023-05-10T08:23:49;14.20;99.90
41256;DHT22;26989;45.524;10.938;2023-05-10T08:26:17;14.30;99.90
41256;DHT22;26989;45.524;10.938;2023-05-10T08:28:43;14.30;99.90
41256;DHT22;26989;45.524;10.938;2023-05-10T08:31:10;14.30;99.90
41256;DHT22;26989;45.524;10.938;2023-05-10T08:33:38;14.20;99.90
41256;DHT22;26989;45.524;10.938;2023-05-10T08:36:07;14.30;99.90
41256;DHT22;26989;45.524;10.938;2023-05-10T08:38:34;14.20;99.90
41256;DHT22;26989;45.524;10.938;2023-05-10T08:41:04;14.10;99.90
41256;DHT22;26989;45.524;10.938;2023-05-10T08:43:36;14.40;99.90
41256;DHT22;26989;45.524;10.938;2023-05-10T08:46:05;14.40;99.90
41256;DHT22;26989;45.524;10.938;2023-05-10T08:48:34;14.30;99.90
41256;DHT22;26989;45.524;10.938;2023-05-10T08:51:03;14.20;99.90
41256;DHT22;26989;45.524;10.938;2023-05-10T08:53:31;14.20;99.90
41256;DHT22;26989;45.524;10.938;2023-05-10T08:56:01;14.20;99.90
41256;DHT22;26989;45.524;10.938;2023-05-10T08:58:29;14.20;99.90
41256;DHT22;26989;45.524;10.938;2023-05-10T09:00:57;14.30;99.90
41256;DHT22;26989;45.524;10.938;2023-05-10T09:03:24;14.40;99.90
41256;DHT22;26989;45.524;10.938;2023-05-10T09:05:55;14.70;99.90
41256;DHT22;26989;45.524;10.938;2023-05-10T09:08:25;14.50;99.90
41256;DHT22;26989;45.524;10.938;2023-05-10T09:10:54;14.70;99.90
41256;DHT22;26989;45.524;10.938;2023-05-10T09:13:22;14.60;99.90
41256;DHT22;26989;45.524;10.938;2023-05-10T09:15:50;14.90;99.90
41256;DHT22;26989;45.524;10.938;2023-05-10T09:18:17;15.00;99.90
41256;DHT22;26989;45.524;10.938;2023-05-10T09:20:46;15.10;99.90
41256;DHT22;26989;45.524;10.938;2023-05-10T09:23:12;15.20;99.90
41256;DHT22;26989;45.524;10.938;2023-05-10T09:25:41;15.00;99.90
41256;DHT22;26989;45.524;10.938;2023-05-10T09:28:08;15.00;99.90
41256;DHT22;26989;45.524;10.938;2023-05-10T09:30:36;15.00;99.90
41256;DHT22;26989;45.524;10.938;2023-05-10T09:33:03;15.00;99.90
41256;DHT22;26989;45.524;10.938;2023-05-10T09:35:32;15.00;99.90
41256;DHT22;26989;45.524;10.938;2023-05-10T09:38:01;15.00;99.90
41256;DHT22;26989;45.524;10.938;2023-05-10T09:40:34;15.00;99.90
41256;DHT22;26989;45.524;10.938;2023-05-10T09:43:08;14.80;99.90
41256;DHT22;26989;45.524;10.938;2023-05-10T09:45:35;15.00;99.90
41256;DHT22;26989;45.524;10.938;2023-05-10T09:50:56;15.00;99.90
41256;DHT22;26989;45.524;10.938;2023-05-10T09:53:25;15.30;99.90
41256;DHT22;26989;45.524;10.938;2023-05-10T09:55:54;15.30;99.90
41256;DHT22;26989;45.524;10.938;2023-05-10T09:58:21;15.20;99.90
41256;DHT22;26989;45.524;10.938;2023-05-10T10:00:49;15.30;99.90
41256;DHT22;26989;45.524;10.938;2023-05-10T10:03:26;15.40;99.90
41256;DHT22;26989;45.524;10.938;2023-05-10T10:05:55;15.30;99.90
41256;DHT22;26989;45.524;10.938;2023-05-10T10:08:24;15.40;99.90
41256;DHT22;26989;45.524;10.938;2023-05-10T10:10:51;15.40;99.90
41256;DHT22;26989;45.524;10.938;2023-05-10T10:13:19;15.40;99.90
41256;DHT22;26989;45.524;10.938;2023-05-10T10:15:46;15.40;99.90
41256;DHT22;26989;45.524;10.938;2023-05-10T10:18:17;15.40;99.90
41256;DHT22;26989;45.524;10.938;2023-05-10T10:20:46;15.40;99.90
41256;DHT22;26989;45.524;10.938;2023-05-10T10:23:14;15.60;99.90
41256;DHT22;26989;45.524;10.938;2023-05-10T10:25:44;15.50;99.90
41256;DHT22;26989;45.524;10.938;2023-05-10T10:28:26;15.30;99.90
41256;DHT22;26989;45.524;10.938;2023-05-10T10:31:01;15.20;99.90
41256;DHT22;26989;45.524;10.938;2023-05-10T10:33:50;15.10;99.90
41256;DHT22;26989;45.524;10.938;2023-05-10T10:36:19;15.20;99.90
41256;DHT22;26989;45.524;10.938;2023-05-10T10:41:36;15.40;99.90
41256;DHT22;26989;45.524;10.938;2023-05-10T10:47:32;15.40;99.90
41256;DHT22;26989;45.524;10.938;2023-05-10T10:52:38;15.30;99.90
41256;DHT22;26989;45.524;10.938;2023-05-10T10:55:13;15.20;99.90
41256;DHT22;26989;45.524;10.938;2023-05-10T11:00:38;15.30;99.90
41256;DHT22;26989;45.524;10.938;2023-05-10T11:03:10;15.20;99.90
41256;DHT22;26989;45.524;10.938;2023-05-10T11:05:48;15.20;99.90
41256;DHT22;26989;45.524;10.938;2023-05-10T11:08:19;15.20;99.90
41256;DHT22;26989;45.524;10.938;2023-05-10T11:10:53;15.10;99.90
41256;DHT22;26989;45.524;10.938;2023-05-10T11:13:41;15.00;99.90
41256;DHT22;26989;45.524;10.938;2023-05-10T11:16:20;15.10;99.90
41256;DHT22;26989;45.524;10.938;2023-05-10T11:19:04;15.00;99.90
41256;DHT22;26989;45.524;10.938;2023-05-10T11:21:32;14.90;99.90
41256;DHT22;26989;45.524;10.938;2023-05-10T11:24:01;15.10;99.90
41256;DHT22;26989;45.524;10.938;2023-05-10T11:26:34;15.00;99.90
41256;DHT22;26989;45.524;10.938;2023-05-10T11:29:01;15.30;99.90
41256;DHT22;26989;45.524;10.938;2023-05-10T11:31:29;15.30;99.90
41256;DHT22;26989;45.524;10.938;2023-05-10T11:34:00;15.00;99.90
41256;DHT22;26989;45.524;10.938;2023-05-10T11:36:31;15.10;99.90
41256;DHT22;26989;45.524;10.938;2023-05-10T11:38:59;14.80;99.90
41256;DHT22;26989;45.524;10.938;2023-05-10T11:41:28;15.20;99.90
41256;DHT22;26989;45.524;10.938;2023-05-10T11:43:56;15.30;99.90
41256;DHT22;26989;45.524;10.938;2023-05-10T11:46:25;15.40;99.90
41256;DHT22;26989;45.524;10.938;2023-05-10T11:49:00;15.30;99.90
41256;DHT22;26989;45.524;10.938;2023-05-10T11:51:32;15.10;99.90
41256;DHT22;26989;45.524;10.938;2023-05-10T11:53:59;15.30;99.90
41256;DHT22;26989;45.524;10.938;2023-05-10T11:56:26;15.30;99.90
41256;DHT22;26989;45.524;10.938;2023-05-10T11:58:55;15.20;99.90
41256;DHT22;26989;45.524;10.938;2023-05-10T12:01:23;15.00;99.90
41256;DHT22;26989;45.524;10.938;2023-05-10T12:03:52;15.10;99.90
41256;DHT22;26989;45.524;10.938;2023-05-10T12:06:20;15.20;99.90
41256;DHT22;26989;45.524;10.938;2023-05-10T12:08:48;15.30;99.90
41256;DHT22;26989;45.524;10.938;2023-05-10T12:11:19;15.10;99.90
41256;DHT22;26989;45.524;10.938;2023-05-10T12:13:48;15.20;99.90
41256;DHT22;26989;45.524;10.938;2023-05-10T12:16:24;15.10;99.90
41256;DHT22;26989;45.524;10.938;2023-05-10T12:18:52;15.00;99.90
41256;DHT22;26989;45.524;10.938;2023-05-10T12:21:21;15.00;99.90
41256;DHT22;26989;45.524;10.938;2023-05-10T12:23:54;14.60;99.90
41256;DHT22;26989;45.524;10.938;2023-05-10T12:26:22;14.50;99.90
41256;DHT22;26989;45.524;10.938;2023-05-10T12:28:49;14.50;99.90
41256;DHT22;26989;45.524;10.938;2023-05-10T12:31:17;14.70;99.90
41256;DHT22;26989;45.524;10.938;2023-05-10T12:33:45;14.70;99.90
41256;DHT22;26989;45.524;10.938;2023-05-10T12:36:16;14.80;99.90
41256;DHT22;26989;45.524;10.938;2023-05-10T12:38:46;14.80;99.90
41256;DHT22;26989;45.524;10.938;2023-05-10T12:41:18;14.80;99.90
41256;DHT22;26989;45.524;10.938;2023-05-10T12:43:46;14.80;99.90
41256;DHT22;26989;45.524;10.938;2023-05-10T12:46:18;15.00;99.90
41256;DHT22;26989;45.524;10.938;2023-05-10T12:49:00;14.90;99.90
41256;DHT22;26989;45.524;10.938;2023-05-10T12:51:35;14.80;99.90
41256;DHT22;26989;45.524;10.938;2023-05-10T12:54:03;14.80;99.90
41256;DHT22;26989;45.524;10.938;2023-05-10T12:56:30;14.80;99.90
41256;DHT22;26989;45.524;10.938;2023-05-10T12:58:58;14.90;99.90
41256;DHT22;26989;45.524;10.938;2023-05-10T13:01:26;14.90;99.90
41256;DHT22;26989;45.524;10.938;2023-05-10T13:03:53;14.80;99.90
41256;DHT22;26989;45.524;10.938;2023-05-10T13:06:20;14.90;99.90
41256;DHT22;26989;45.524;10.938;2023-05-10T13:08:47;15.00;99.90
41256;DHT22;26989;45.524;10.938;2023-05-10T13:11:14;15.10;99.90
41256;DHT22;26989;45.524;10.938;2023-05-10T13:13:50;15.10;99.90
41256;DHT22;26989;45.524;10.938;2023-05-10T13:16:18;15.00;99.90
41256;DHT22;26989;45.524;10.938;2023-05-10T13:18:45;15.00;99.90
41256;DHT22;26989;45.524;10.938;2023-05-10T13:21:13;15.10;99.90
41256;DHT22;26989;45.524;10.938;2023-05-10T13:23:40;15.00;99.90
41256;DHT22;26989;45.524;10.938;2023-05-10T13:26:07;15.10;99.90
41256;DHT22;26989;45.524;10.938;2023-05-10T13:28:34;15.00;99.90
41256;DHT22;26989;45.524;10.938;2023-05-10T13:31:02;15.20;99.90
41256;DHT22;26989;45.524;10.938;2023-05-10T13:33:32;15.20;99.90
41256;DHT22;26989;45.524;10.938;2023-05-10T13:36:01;15.20;99.90
41256;DHT22;26989;45.524;10.938;2023-05-10T13:38:28;15.00;99.90
41256;DHT22;26989;45.524;10.938;2023-05-10T13:40:57;15.10;99.90
41256;DHT22;26989;45.524;10.938;2023-05-10T13:43:24;15.10;99.90
41256;DHT22;26989;45.524;10.938;2023-05-10T13:45:51;15.20;99.90
41256;DHT22;26989;45.524;10.938;2023-05-10T13:48:18;15.20;99.90
41256;DHT22;26989;45.524;10.938;2023-05-10T13:50:45;15.10;99.90
41256;DHT22;26989;45.524;10.938;2023-05-10T13:53:12;15.10;99.90
41256;DHT22;26989;45.524;10.938;2023-05-10T13:55:41;15.10;99.90
41256;DHT22;26989;45.524;10.938;2023-05-10T13:58:08;15.10;99.90
41256;DHT22;26989;45.524;10.938;2023-05-10T14:00:35;14.90;99.90
41256;DHT22;26989;45.524;10.938;2023-05-10T14:03:02;14.90;99.90
41256;DHT22;26989;45.524;10.938;2023-05-10T14:05:31;14.90;99.90
41256;DHT22;26989;45.524;10.938;2023-05-10T14:07:58;14.90;99.90
41256;DHT22;26989;45.524;10.938;2023-05-10T14:10:25;14.80;99.90
41256;DHT22;26989;45.524;10.938;2023-05-10T14:12:52;14.70;99.90
41256;DHT22;26989;45.524;10.938;2023-05-10T14:15:19;14.80;99.90
41256;DHT22;26989;45.524;10.938;2023-05-10T14:17:54;14.80;99.90
41256;DHT22;26989;45.524;10.938;2023-05-10T14:20:22;14.80;99.90
41256;DHT22;26989;45.524;10.938;2023-05-10T14:22:49;14.70;99.90
41256;DHT22;26989;45.524;10.938;2023-05-10T14:25:16;14.60;99.90
41256;DHT22;26989;45.524;10.938;2023-05-10T14:27:45;14.50;99.90
41256;DHT22;26989;45.524;10.938;2023-05-10T14:30:14;14.50;99.90
41256;DHT22;26989;45.524;10.938;2023-05-10T14:32:41;14.50;99.90
41256;DHT22;26989;45.524;10.938;2023-05-10T14:35:08;14.50;99.90
41256;DHT22;26989;45.524;10.938;2023-05-10T14:37:38;14.40;99.90
41256;DHT22;26989;45.524;10.938;2023-05-10T14:40:06;14.60;99.90
41256;DHT22;26989;45.524;10.938;2023-05-10T14:42:36;14.60;99.90
41256;DHT22;26989;45.524;10.938;2023-05-10T14:45:04;14.70;99.90
41256;DHT22;26989;45.524;10.938;2023-05-10T14:47:31;14.80;99.90
41256;DHT22;26989;45.524;10.938;2023-05-10T14:49:58;14.80;99.90
41256;DHT22;26989;45.524;10.938;2023-05-10T14:52:25;14.80;99.90
41256;DHT22;26989;45.524;10.938;2023-05-10T14:54:52;14.80;99.90
41256;DHT22;26989;45.524;10.938;2023-05-10T14:57:21;14.90;99.90
41256;DHT22;26989;45.524;10.938;2023-05-10T14:59:48;14.90;99.90
41256;DHT22;26989;45.524;10.938;2023-05-10T15:02:15;15.00;99.90
41256;DHT22;26989;45.524;10.938;2023-05-10T15:04:44;14.90;99.90
41256;DHT22;26989;45.524;10.938;2023-05-10T15:07:14;14.90;99.90
41256;DHT22;26989;45.524;10.938;2023-05-10T15:09:43;14.70;99.90
41256;DHT22;26989;45.524;10.938;2023-05-10T15:12:11;14.70;99.90
41256;DHT22;26989;45.524;10.938;2023-05-10T15:14:38;14.70;99.90
41256;DHT22;26989;45.524;10.938;2023-05-10T15:17:06;14.70;99.90
41256;DHT22;26989;45.524;10.938;2023-05-10T15:19:49;14.70;99.90
41256;DHT22;26989;45.524;10.938;2023-05-10T15:22:17;14.70;99.90
41256;DHT22;26989;45.524;10.938;2023-05-10T15:24:44;14.60;99.90
41256;DHT22;26989;45.524;10.938;2023-05-10T15:27:11;14.60;99.90
41256;DHT22;26989;45.524;10.938;2023-05-10T15:29:40;14.50;99.90
41256;DHT22;26989;45.524;10.938;2023-05-10T15:32:10;14.50;99.90
41256;DHT22;26989;45.524;10.938;2023-05-10T15:34:37;14.50;99.90
41256;DHT22;26989;45.524;10.938;2023-05-10T15:37:04;14.50;99.90
41256;DHT22;26989;45.524;10.938;2023-05-10T15:39:32;14.50;99.90
41256;DHT22;26989;45.524;10.938;2023-05-10T15:41:59;14.60;99.90
41256;DHT22;26989;45.524;10.938;2023-05-10T15:44:27;14.60;99.90
41256;DHT22;26989;45.524;10.938;2023-05-10T15:46:55;14.60;99.90
41256;DHT22;26989;45.524;10.938;2023-05-10T15:49:23;14.50;99.90
41256;DHT22;26989;45.524;10.938;2023-05-10T15:51:50;14.50;99.90
41256;DHT22;26989;45.524;10.938;2023-05-10T15:54:17;14.50;99.90
41256;DHT22;26989;45.524;10.938;2023-05-10T15:56:44;14.50;99.90